Time;durP1;ratioP1;P1;durP2;ratioP2;P2;SDS_P1;SDS_P2;PMS_P1;PMS_P2;Temp;Humidity;BMP_temperature;BMP_pressure;BME280_temperature;BME280_humidity;BME280_pressure;Samples;Min_cycle;Max_cycle;Signal;HPM_P1;HPM_P2
2021/04/04 00:00:10;;;;;;;;;;;;;;;16.99;62.76;100663.31;5010429;28;1890;-57
2021/04/04 00:02:36;;;;;;;;;;;;;;;17.02;62.25;100672.91;5013711;28;1597;-57
2021/04/04 00:05:02;;;;;;;;;;;;;;;17.00;63.28;100673.03;5010390;28;1640;-57
2021/04/04 00:07:28;;;;;;;;;;;;;;;17.01;62.81;100680.09;5014056;28;1549;-57
2021/04/04 00:09:53;;;;;;;;;;;;;;;17.00;63.26;100672.19;5013407;28;1688;-57
2021/04/04 00:12:18;;;;;;;;;;;;;;;17.00;63.12;100678.38;5012208;28;1627;-57
2021/04/04 00:14:44;;;;;;;;;;;;;;;16.99;61.95;100687.38;5010103;28;1365;-57
2021/04/04 00:17:09;;;;;;;;;;;;;;;16.99;62.44;100674.00;5005862;28;1363;-57
2021/04/04 00:19:35;;;;;;;;;;;;;;;16.99;62.23;100682.03;5012275;28;1918;-57
2021/04/04 00:22:00;;;;;;;;;;;;;;;17.02;62.20;100687.09;5015652;28;1548;-57
2021/04/04 00:24:25;;;;;;;;;;;;;;;16.99;63.26;100682.03;5012522;28;1505;-57
2021/04/04 00:26:51;;;;;;;;;;;;;;;16.96;62.75;100674.25;5011844;28;1387;-57
2021/04/04 00:29:16;;;;;;;;;;;;;;;16.97;61.99;100678.63;5013465;28;1532;-57
2021/04/04 00:31:42;;;;;;;;;;;;;;;16.97;63.29;100673.28;5012531;28;1568;-57
2021/04/04 00:34:07;;;;;;;;;;;;;;;16.98;62.24;100680.31;5009517;28;1327;-57
2021/04/04 00:36:33;;;;;;;;;;;;;;;16.98;62.43;100674.13;5015500;28;1624;-57
2021/04/04 00:38:58;;;;;;;;;;;;;;;16.95;62.65;100677.03;5009911;28;1886;-57
2021/04/04 00:41:23;;;;;;;;;;;;;;;16.95;62.30;100669.03;5010614;28;1335;-57
2021/04/04 00:43:49;;;;;;;;;;;;;;;16.97;61.95;100677.75;5007666;28;1414;-57
2021/04/04 00:46:14;;;;;;;;;;;;;;;16.93;63.21;100674.50;5006358;28;1573;-57
2021/04/04 00:48:40;;;;;;;;;;;;;;;16.96;62.61;100671.56;5009714;28;1355;-57
2021/04/04 00:51:05;;;;;;;;;;;;;;;16.94;62.93;100673.53;5007796;28;1327;-57
2021/04/04 00:53:30;;;;;;;;;;;;;;;16.95;62.55;100680.59;5010019;28;1585;-57
2021/04/04 00:55:56;;;;;;;;;;;;;;;16.97;63.32;100677.75;5009802;28;1542;-57
2021/04/04 00:58:21;;;;;;;;;;;;;;;16.94;62.71;100668.19;5013127;28;1886;-57
2021/04/04 01:00:47;;;;;;;;;;;;;;;16.97;62.48;100673.28;5012025;28;1544;-57
2021/04/04 01:03:12;;;;;;;;;;;;;;;16.93;62.08;100669.19;5011893;28;1712;-57
2021/04/04 01:05:41;;;;;;;;;;;;;;;16.93;62.77;100662.97;5010629;28;1486;-57
2021/04/04 01:08:07;;;;;;;;;;;;;;;16.92;62.69;100670.13;5013058;28;1366;-57
2021/04/04 01:10:50;;;;;;;;;;;;;;;16.95;63.08;100675.25;5009845;28;1482;-57
2021/04/04 01:13:28;;;;;;;;;;;;;;;16.94;62.88;100673.53;5012694;28;1434;-57
2021/04/04 01:16:14;;;;;;;;;;;;;;;16.94;62.97;100676.19;5008739;28;1368;-57
2021/04/04 01:18:39;;;;;;;;;;;;;;;16.93;63.17;100677.19;5009661;28;1988;-57
2021/04/04 01:21:11;;;;;;;;;;;;;;;16.96;62.03;100682.25;5013410;28;1295;-57
2021/04/04 01:23:55;;;;;;;;;;;;;;;16.94;62.09;100689.56;5011853;28;1571;-57
2021/04/04 01:26:44;;;;;;;;;;;;;;;16.92;62.21;100683.50;5009236;28;1557;-57
2021/04/04 01:29:10;;;;;;;;;;;;;;;16.92;62.11;100669.28;5008676;28;1505;-57
2021/04/04 01:31:36;;;;;;;;;;;;;;;16.94;62.86;100678.88;5011525;28;1354;-57
2021/04/04 01:34:02;;;;;;;;;;;;;;;16.95;62.45;100671.69;5013037;28;1418;-57
2021/04/04 01:36:29;;;;;;;;;;;;;;;16.95;63.46;100679.72;5014118;28;1490;-57
2021/04/04 01:38:55;;;;;;;;;;;;;;;16.91;62.49;100679.13;5010054;28;1886;-57
2021/04/04 01:41:20;;;;;;;;;;;;;;;16.93;62.25;100682.53;5006490;28;1600;-57
2021/04/04 01:43:48;;;;;;;;;;;;;;;16.92;62.07;100677.31;5012931;28;1434;-57
2021/04/04 01:46:14;;;;;;;;;;;;;;;16.93;62.81;100685.19;5002412;28;1425;-57
2021/04/04 01:48:40;;;;;;;;;;;;;;;16.93;62.00;100698.56;5012076;28;1540;-57
2021/04/04 01:51:06;;;;;;;;;;;;;;;16.91;63.34;100689.81;5007613;28;1374;-57
2021/04/04 01:53:31;;;;;;;;;;;;;;;16.90;62.69;100704.13;5009257;28;1604;-57
2021/04/04 01:55:58;;;;;;;;;;;;;;;16.91;62.55;100695.16;5008288;28;1360;-57
2021/04/04 01:58:24;;;;;;;;;;;;;;;16.89;62.59;100697.06;5009483;28;1890;-57
2021/04/04 02:01:06;;;;;;;;;;;;;;;16.90;63.01;100693.44;5024128;23;2110;-45
2021/04/04 02:03:38;;;;;;;;;;;;;;;16.88;62.57;100701.56;4961933;28;1737;-45
2021/04/04 02:06:04;;;;;;;;;;;;;;;16.88;62.55;100695.38;4966669;28;1624;-47
2021/04/04 02:08:30;;;;;;;;;;;;;;;16.89;62.13;100707.75;4969016;28;1664;-45
2021/04/04 02:10:56;;;;;;;;;;;;;;;16.92;62.79;100704.00;4990834;23;3543;-57
2021/04/04 02:13:23;;;;;;;;;;;;;;;16.87;62.23;100693.69;4986271;28;1444;-57
2021/04/04 02:15:48;;;;;;;;;;;;;;;16.89;62.39;100705.09;4986047;28;1278;-56
2021/04/04 02:18:14;;;;;;;;;;;;;;;16.90;63.50;100701.47;4992328;28;1368;-57
2021/04/04 02:20:40;;;;;;;;;;;;;;;16.90;63.52;100707.63;4993461;28;1973;-56
2021/04/04 02:23:06;;;;;;;;;;;;;;;16.87;62.22;100705.22;4995764;28;1427;-57
2021/04/04 02:25:32;;;;;;;;;;;;;;;16.91;63.12;100705.84;4987241;28;1362;-56
2021/04/04 02:27:58;;;;;;;;;;;;;;;16.87;62.79;100699.03;4988246;28;1182;-56
2021/04/04 02:30:23;;;;;;;;;;;;;;;16.87;62.52;100704.38;4993261;28;1530;-57
2021/04/04 02:33:05;;;;;;;;;;;;;;;16.92;63.30;100712.88;4985056;28;1507;-57
2021/04/04 02:35:33;;;;;;;;;;;;;;;16.90;63.43;100702.28;4989557;28;1522;-56
2021/04/04 02:37:59;;;;;;;;;;;;;;;16.89;63.23;100705.09;4996031;28;1404;-57
2021/04/04 02:40:25;;;;;;;;;;;;;;;16.91;62.45;100708.50;4990811;28;1943;-57
2021/04/04 02:42:52;;;;;;;;;;;;;;;16.89;62.17;100713.09;4992647;28;1427;-56
2021/04/04 02:45:18;;;;;;;;;;;;;;;16.91;62.76;100711.19;4987342;28;1662;-57
2021/04/04 02:47:55;;;;;;;;;;;;;;;16.87;62.46;100705.22;4989155;28;1427;-56
2021/04/04 02:50:21;;;;;;;;;;;;;;;16.92;63.34;100712.88;4990596;28;1477;-56
2021/04/04 02:52:47;;;;;;;;;;;;;;;16.88;63.20;100701.56;4989674;28;1305;-56
2021/04/04 02:55:13;;;;;;;;;;;;;;;16.89;62.68;100702.41;4991276;28;1265;-57
2021/04/04 02:57:40;;;;;;;;;;;;;;;16.90;62.25;100714.81;4987632;28;1494;-57
2021/04/04 03:00:06;;;;;;;;;;;;;;;16.86;63.20;100703.53;4993139;28;1890;-57
2021/04/04 03:02:34;;;;;;;;;;;;;;;16.89;62.26;100707.75;4984270;28;1618;-57
2021/04/04 03:05:00;;;;;;;;;;;;;;;16.88;63.64;100708.75;4995145;28;1494;-56
2021/04/04 03:07:27;;;;;;;;;;;;;;;16.90;63.71;100714.81;4993578;28;1367;-56
2021/04/04 03:09:54;;;;;;;;;;;;;;;16.88;63.07;100711.41;4989209;28;1727;-56
2021/04/04 03:12:20;;;;;;;;;;;;;;;16.86;63.23;100714.19;4992632;28;1459;-56
2021/04/04 03:14:46;;;;;;;;;;;;;;;16.85;63.33;100711.66;4987340;28;1345;-57
2021/04/04 03:17:13;;;;;;;;;;;;;;;16.86;62.61;100708.88;4989027;28;1494;-56
2021/04/04 03:19:43;;;;;;;;;;;;;;;16.85;62.31;100717.00;4992396;28;1919;-56
2021/04/04 03:22:10;;;;;;;;;;;;;;;16.85;63.38;100700.97;4988805;28;1351;-56
2021/04/04 03:24:35;;;;;;;;;;;;;;;16.85;63.48;100698.28;4992798;28;1493;-56
2021/04/04 03:27:01;;;;;;;;;;;;;;;16.85;62.39;100699.16;4986603;28;1394;-56
2021/04/04 03:29:27;;;;;;;;;;;;;;;16.82;62.50;100696.72;4992677;28;1533;-57
2021/04/04 03:31:53;;;;;;;;;;;;;;;16.85;62.37;100698.28;4993088;28;1335;-56
2021/04/04 03:34:18;;;;;;;;;;;;;;;16.85;62.39;100714.31;4984202;28;1329;-56
2021/04/04 03:36:45;;;;;;;;;;;;;;;16.87;63.60;100710.56;4995141;28;1441;-56
2021/04/04 03:39:11;;;;;;;;;;;;;;;16.84;62.63;100704.63;4989715;28;1887;-56
2021/04/04 03:41:36;;;;;;;;;;;;;;;16.84;63.33;100715.31;4992108;28;1589;-56
2021/04/04 03:44:02;;;;;;;;;;;;;;;16.86;63.67;100718.69;4994552;28;1497;-56
2021/04/04 03:46:31;;;;;;;;;;;;;;;16.85;62.35;100727.66;4986248;28;1402;-56
2021/04/04 03:48:57;;;;;;;;;;;;;;;16.86;63.32;100721.38;4989067;28;1364;-57
2021/04/04 03:51:24;;;;;;;;;;;;;;;16.87;62.94;100725.72;4993302;28;1510;-56
2021/04/04 03:53:50;;;;;;;;;;;;;;;16.86;63.24;100732.06;4994248;28;1347;-57
2021/04/04 03:56:20;;;;;;;;;;;;;;;16.84;62.37;100726.84;4988771;28;1312;-56
2021/04/04 03:58:47;;;;;;;;;;;;;;;16.88;63.01;100733.63;4987674;28;1891;-56
2021/04/04 04:01:14;;;;;;;;;;;;;;;16.89;63.28;100723.78;4994149;28;1383;-56
2021/04/04 04:03:40;;;;;;;;;;;;;;;16.85;63.57;100738.34;4994086;28;1494;-56
2021/04/04 04:06:09;;;;;;;;;;;;;;;16.84;62.61;100726.84;4988164;28;1308;-56
2021/04/04 04:08:36;;;;;;;;;;;;;;;16.85;62.64;100733.00;4993051;28;1542;-57
2021/04/04 04:11:02;;;;;;;;;;;;;;;16.88;63.31;100743.47;4983857;28;1386;-56
2021/04/04 04:13:28;;;;;;;;;;;;;;;16.83;63.10;100735.84;4987946;28;1180;-56
2021/04/04 04:15:54;;;;;;;;;;;;;;;16.85;63.12;100755.25;4991548;28;1464;-56
2021/04/04 04:18:20;;;;;;;;;;;;;;;16.83;62.30;100751.84;4984459;28;1363;-57
2021/04/04 04:20:46;;;;;;;;;;;;;;;16.87;63.34;100747.09;4987172;28;1969;-56
2021/04/04 04:23:12;;;;;;;;;;;;;;;16.88;63.60;100743.47;4982586;28;1404;-57
2021/04/04 04:25:38;;;;;;;;;;;;;;;16.84;63.57;100750.88;4992313;28;1185;-56
2021/04/04 04:28:04;;;;;;;;;;;;;;;16.83;62.81;100756.31;4983130;28;1118;-56
2021/04/04 04:30:30;;;;;;;;;;;;;;;16.84;62.93;100747.34;4983187;28;1648;-56
2021/04/04 04:32:59;;;;;;;;;;;;;;;16.85;62.42;100765.06;4984020;28;1590;-56
2021/04/04 04:35:26;;;;;;;;;;;;;;;16.85;62.61;100759.72;4987237;28;1589;-56
2021/04/04 04:37:51;;;;;;;;;;;;;;;16.86;63.53;100766.78;4993822;28;1363;-56
2021/04/04 04:40:17;;;;;;;;;;;;;;;16.84;63.57;100763.38;4992601;28;1894;-57
2021/04/04 04:42:45;;;;;;;;;;;;;;;16.84;62.95;100768.72;4989966;28;1764;-56
2021/04/04 04:45:16;;;;;;;;;;;;;;;16.82;62.46;100768.00;4982261;28;1412;-56
2021/04/04 04:47:42;;;;;;;;;;;;;;;16.83;63.53;100764.34;4981243;28;1721;-56
2021/04/04 04:50:08;;;;;;;;;;;;;;;16.82;62.90;100771.50;4985763;28;1416;-57
2021/04/04 04:52:33;;;;;;;;;;;;;;;16.83;63.23;100764.34;4994893;28;1420;-57
2021/04/04 04:54:59;;;;;;;;;;;;;;;16.84;62.58;100771.41;4990718;28;1721;-56
2021/04/04 04:57:25;;;;;;;;;;;;;;;16.84;62.44;100774.91;4990669;28;1416;-57
2021/04/04 04:59:50;;;;;;;;;;;;;;;16.85;62.34;100771.28;4989717;28;2031;-56
2021/04/04 05:02:18;;;;;;;;;;;;;;;16.83;62.97;100764.34;4992800;28;1514;-56
2021/04/04 05:04:45;;;;;;;;;;;;;;;16.83;62.62;100773.22;4989468;28;1389;-56
2021/04/04 05:07:10;;;;;;;;;;;;;;;16.86;63.49;100786.31;4993831;28;1089;-56
2021/04/04 05:09:36;;;;;;;;;;;;;;;16.83;62.30;100777.69;4991275;28;1466;-56
2021/04/04 05:12:02;;;;;;;;;;;;;;;16.87;63.15;100787.16;4990651;28;1465;-56
2021/04/04 05:14:27;;;;;;;;;;;;;;;16.84;62.32;100774.91;4988011;28;1558;-57
2021/04/04 05:16:53;;;;;;;;;;;;;;;16.84;63.00;100766.06;4983900;28;1436;-57
2021/04/04 05:19:18;;;;;;;;;;;;;;;16.86;62.37;100785.47;4984286;28;1976;-56
2021/04/04 05:21:44;;;;;;;;;;;;;;;16.88;62.18;100784.38;4993638;28;1414;-56
2021/04/04 05:24:10;;;;;;;;;;;;;;;16.87;62.63;100800.50;4991757;28;1427;-56
2021/04/04 05:26:40;;;;;;;;;;;;;;;16.88;62.29;100796.88;4992002;28;1383;-56
2021/04/04 05:29:09;;;;;;;;;;;;;;;16.87;62.60;100800.50;4991248;28;1489;-56
2021/04/04 05:31:43;;;;;;;;;;;;;;;16.91;62.36;100799.34;4988294;28;1371;-56
2021/04/04 05:34:12;;;;;;;;;;;;;;;16.89;63.28;100791.44;4990831;28;1301;-56
2021/04/04 05:36:48;;;;;;;;;;;;;;;16.89;62.73;100793.22;4992950;28;1332;-57
2021/04/04 05:39:15;;;;;;;;;;;;;;;16.88;62.99;100783.53;4293468;28;10000798;-56
2021/04/04 05:41:42;;;;;;;;;;;;;;;16.87;62.84;100798.72;4981420;28;1333;-56
2021/04/04 05:44:08;;;;;;;;;;;;;;;16.83;62.64;100781.22;4980056;28;1293;-56
2021/04/04 05:46:36;;;;;;;;;;;;;;;16.86;62.46;100788.16;4975151;28;1364;-56
2021/04/04 05:49:16;;;;;;;;;;;;;;;16.87;62.35;100804.06;4986372;28;1462;-56
2021/04/04 05:51:44;;;;;;;;;;;;;;;16.85;63.50;100791.78;4987189;28;994;-56
2021/04/04 05:54:25;;;;;;;;;;;;;;;16.84;63.26;100787.41;4983461;28;1712;-57
2021/04/04 05:56:52;;;;;;;;;;;;;;;16.85;63.63;100791.78;4976761;28;1348;-55
2021/04/04 05:59:21;;;;;;;;;;;;;;;16.87;63.86;100784.50;4979761;28;1890;-57
2021/04/04 06:02:02;;;;;;;;;;;;;;;16.86;62.35;100805.00;4980560;28;1408;-56
2021/04/04 06:04:46;;;;;;;;;;;;;;;16.86;62.75;100802.34;4981522;28;1348;-57
2021/04/04 06:07:12;;;;;;;;;;;;;;;16.89;62.97;100807.47;4971772;28;1042;-56
2021/04/04 06:09:56;;;;;;;;;;;;;;;16.86;62.57;100809.50;4979364;28;1385;-56
2021/04/04 06:12:27;;;;;;;;;;;;;;;16.87;63.43;100806.72;4985480;28;1339;-57
2021/04/04 06:15:02;;;;;;;;;;;;;;;16.86;63.12;100801.50;4978975;28;1369;-57
2021/04/04 06:17:27;;;;;;;;;;;;;;;16.85;63.31;100802.47;4980753;28;1347;-56
2021/04/04 06:20:10;;;;;;;;;;;;;;;16.84;63.72;100798.94;4974978;28;1942;-56
2021/04/04 06:22:38;;;;;;;;;;;;;;;16.85;62.41;100808.66;4956743;28;10573;-56
2021/04/04 06:25:14;;;;;;;;;;;;;;;16.90;63.82;100819.81;4975242;28;1542;-57
2021/04/04 06:28:12;;;;;;;;;;;;;;;16.87;62.44;100833.44;4982116;28;1519;-57
2021/04/04 06:31:00;;;;;;;;;;;;;;;16.87;62.78;100832.56;4958579;28;1663;-56
2021/04/04 06:33:26;;;;;;;;;;;;;;;16.88;63.44;100832.44;4982044;28;2396;-57
2021/04/04 06:36:04;;;;;;;;;;;;;;;16.86;62.66;100836.22;4980823;28;1526;-56
2021/04/04 06:38:50;;;;;;;;;;;;;;;16.87;62.88;100838.78;4981683;28;2040;-56
2021/04/04 06:41:25;;;;;;;;;;;;;;;16.89;62.87;100849.31;4983153;28;1596;-57
2021/04/04 06:43:53;;;;;;;;;;;;;;;16.86;63.83;100853.09;4981687;28;1335;-57
2021/04/04 06:46:37;;;;;;;;;;;;;;;16.87;63.89;100853.94;4977685;28;1380;-57
2021/04/04 06:49:09;;;;;;;;;;;;;;;16.88;63.10;100855.66;4978925;28;1408;-57
2021/04/04 06:51:37;;;;;;;;;;;;;;;16.89;62.55;100847.53;4974961;28;1253;-56
2021/04/04 06:54:06;;;;;;;;;;;;;;;16.89;63.50;100849.31;4980360;28;1383;-56
2021/04/04 06:56:44;;;;;;;;;;;;;;;16.92;63.50;100849.09;4978757;28;1368;-56
2021/04/04 06:59:29;;;;;;;;;;;;;;;16.97;62.21;100854.94;4973094;28;1987;-56
2021/04/04 07:02:00;;;;;;;;;;;;;;;17.08;62.84;100846.06;4980716;28;1466;-57
2021/04/04 07:04:40;;;;;;;;;;;;;;;17.16;61.65;100859.66;4987103;28;1165;-57
2021/04/04 07:07:25;;;;;;;;;;;;;;;17.18;61.93;100855.06;4993621;28;1159;-59
2021/04/04 07:09:53;;;;;;;;;;;;;;;16.84;59.20;100859.53;4992888;28;1757;-57
2021/04/04 07:12:34;;;;;;;;;;;;;;;16.88;58.67;100871.69;4992115;28;1529;-57
2021/04/04 07:15:08;;;;;;;;;;;;;;;16.96;58.87;100866.59;4983620;28;1638;-58
2021/04/04 07:18:00;;;;;;;;;;;;;;;16.99;58.24;100862.81;4980307;28;1550;-61
2021/04/04 07:20:40;;;;;;;;;;;;;;;17.03;59.09;100869.63;4982700;28;1957;-58
2021/04/04 07:23:08;;;;;;;;;;;;;;;17.05;59.19;100889.91;4986408;28;1335;-58
2021/04/04 07:25:54;;;;;;;;;;;;;;;17.06;58.35;100880.06;4992580;28;1534;-58
2021/04/04 07:28:20;;;;;;;;;;;;;;;17.01;57.16;100875.09;4995040;28;1384;-59
2021/04/04 07:30:51;;;;;;;;;;;;;;;16.99;57.32;100879.72;4992765;28;1162;-59
2021/04/04 07:33:17;;;;;;;;;;;;;;;16.94;56.42;100878.38;4988568;28;1569;-63
2021/04/04 07:35:56;;;;;;;;;;;;;;;16.93;57.26;100885.53;4987092;28;1318;-64
2021/04/04 07:38:27;;;;;;;;;;;;;;;16.87;56.01;100875.31;4987749;28;1448;-64
2021/04/04 07:41:05;;;;;;;;;;;;;;;16.86;55.94;100890.47;4994743;28;1882;-57
2021/04/04 07:43:40;;;;;;;;;;;;;;;16.89;56.44;100884.91;4979788;28;1213;-57
2021/04/04 07:46:24;;;;;;;;;;;;;;;16.87;56.76;100886.84;4983334;28;1451;-56
2021/04/04 07:48:56;;;;;;;;;;;;;;;16.84;55.92;100878.22;4985385;28;1467;-57
2021/04/04 07:51:30;;;;;;;;;;;;;;;16.85;56.56;100898.59;4986173;28;1194;-56
2021/04/04 07:53:55;;;;;;;;;;;;;;;16.87;57.48;100902.00;4985908;28;1462;-57
2021/04/04 07:56:23;;;;;;;;;;;;;;;16.89;55.79;100900.94;4988841;28;1353;-57
2021/04/04 07:59:05;;;;;;;;;;;;;;;16.84;56.41;100903.09;4994983;28;1890;-57
2021/04/04 08:01:37;;;;;;;;;;;;;;;16.81;56.11;100894.44;4988788;28;1486;-56
2021/04/04 08:04:13;;;;;;;;;;;;;;;16.84;57.34;100904.94;4986873;28;1388;-56
2021/04/04 08:06:40;;;;;;;;;;;;;;;16.81;56.09;100902.44;4988293;28;1300;-56
2021/04/04 08:09:05;;;;;;;;;;;;;;;16.83;55.90;100908.56;4986851;28;1670;-56
2021/04/04 08:11:39;;;;;;;;;;;;;;;16.84;55.02;100912.94;4980424;28;1356;-56
2021/04/04 08:14:06;;;;;;;;;;;;;;;16.82;55.63;100914.88;4982271;28;1431;-56
2021/04/04 08:16:43;;;;;;;;;;;;;;;16.82;55.83;100905.03;4986085;28;1374;-56
2021/04/04 08:19:09;;;;;;;;;;;;;;;16.85;57.04;100922.66;4994771;28;1971;-56
2021/04/04 08:21:36;;;;;;;;;;;;;;;16.81;55.40;100926.50;4994119;28;1601;-57
2021/04/04 08:24:08;;;;;;;;;;;;;;;16.85;55.21;100930.66;4993237;28;1251;-56
2021/04/04 08:26:33;;;;;;;;;;;;;;;16.82;55.23;100930.91;4992733;28;1368;-56
2021/04/04 08:29:01;;;;;;;;;;;;;;;16.76;55.06;100920.66;4988140;28;1350;-56
2021/04/04 08:31:38;;;;;;;;;;;;;;;16.75;56.74;100929.63;4985427;28;1356;-56
2021/04/04 08:34:06;;;;;;;;;;;;;;;16.80;56.09;100938.16;4983250;28;1204;-56
2021/04/04 08:36:36;;;;;;;;;;;;;;;16.73;55.60;100935.06;4989122;28;1600;-55
2021/04/04 08:39:15;;;;;;;;;;;;;;;;;;;;;
2021/04/04 08:41:53;;;;;;;;;;;;;;;16.73;54.58;100942.25;4972249;28;1460;-56
2021/04/04 08:44:25;;;;;;;;;;;;;;;16.69;54.53;100933.59;4983128;28;1428;-57
2021/04/04 08:47:09;;;;;;;;;;;;;;;16.70;55.13;100944.19;4993208;28;1466;-56
2021/04/04 08:49:35;;;;;;;;;;;;;;;16.67;55.60;100947.09;4988310;28;1431;-54
2021/04/04 08:52:21;;;;;;;;;;;;;;;16.69;55.48;100953.19;4989055;28;1485;-57
2021/04/04 08:54:51;;;;;;;;;;;;;;;16.67;55.20;100957.78;4986285;28;1540;-56
2021/04/04 08:57:20;;;;;;;;;;;;;;;16.67;55.13;100965.78;4987389;28;1517;-55
2021/04/04 08:59:47;;;;;;;;;;;;;;;16.65;54.94;100958.84;4985688;28;1898;-55
2021/04/04 09:02:14;;;;;;;;;;;;;;;16.60;55.06;100951.19;4990687;28;1436;-53
2021/04/04 09:04:40;;;;;;;;;;;;;;;16.61;54.44;100968.06;4983781;28;1424;-54
2021/04/04 09:07:06;;;;;;;;;;;;;;;16.61;54.67;100954.69;4991857;28;1232;-55
2021/04/04 09:09:40;;;;;;;;;;;;;;;16.57;54.66;100951.41;4990086;28;1532;-56
2021/04/04 09:12:05;;;;;;;;;;;;;;;16.59;54.55;100957.50;4991313;28;1516;-55
2021/04/04 09:14:35;;;;;;;;;;;;;;;16.57;53.37;100967.41;4984310;28;1478;-56
2021/04/04 09:17:05;;;;;;;;;;;;;;;16.59;54.02;100952.16;4984981;28;1458;-55
2021/04/04 09:19:31;;;;;;;;;;;;;;;16.55;53.37;100945.34;4992111;28;1973;-56
2021/04/04 09:21:57;;;;;;;;;;;;;;;16.56;54.90;100952.38;4987132;28;1684;-55
2021/04/04 09:24:24;;;;;;;;;;;;;;;16.55;53.99;100949.81;4991122;28;1648;-57
2021/04/04 09:26:50;;;;;;;;;;;;;;;16.57;53.34;100951.41;4991219;28;1348;-56
2021/04/04 09:29:16;;;;;;;;;;;;;;;16.56;53.08;100947.03;4991040;28;1401;-56
2021/04/04 09:31:42;;;;;;;;;;;;;;;16.57;53.90;100956.75;4988620;28;1354;-56
2021/04/04 09:34:10;;;;;;;;;;;;;;;16.53;54.32;100941.94;4986047;28;1392;-55
2021/04/04 09:36:46;;;;;;;;;;;;;;;16.56;54.26;100943.53;4992837;28;1149;-56
2021/04/04 09:39:13;;;;;;;;;;;;;;;16.51;54.16;100933.19;4982623;28;1965;-56
2021/04/04 09:41:39;;;;;;;;;;;;;;;16.54;54.00;100926.78;4989817;28;1396;-55
2021/04/04 09:44:06;;;;;;;;;;;;;;;16.51;54.59;100930.50;4992156;28;1385;-56
2021/04/04 09:46:31;;;;;;;;;;;;;;;16.42;54.04;100918.72;4992397;28;1273;-56
2021/04/04 09:48:56;;;;;;;;;;;;;;;16.11;53.68;100925.47;4993694;28;1388;-57
2021/04/04 09:51:22;;;;;;;;;;;;;;;16.19;52.55;100933.75;4994749;28;1136;-57
2021/04/04 09:53:48;;;;;;;;;;;;;;;16.22;53.22;100930.03;4992332;28;1331;-51
2021/04/04 09:56:18;;;;;;;;;;;;;;;16.28;51.33;100919.75;4986362;28;1387;-56
2021/04/04 09:58:47;;;;;;;;;;;;;;;16.38;52.33;100921.75;4991784;28;1891;-56
2021/04/04 10:01:16;;;;;;;;;;;;;;;16.48;53.09;100933.44;4980142;28;1497;-56
2021/04/04 10:03:52;;;;;;;;;;;;;;;16.56;53.81;100920.34;4981906;28;1336;-55
2021/04/04 10:06:18;;;;;;;;;;;;;;;16.60;54.91;100910.31;4984417;28;1204;-56
2021/04/04 10:08:51;;;;;;;;;;;;;;;16.65;54.11;100925.00;4982116;28;1415;-55
2021/04/04 10:11:18;;;;;;;;;;;;;;;16.69;55.32;100902.44;4983400;28;1558;-56
2021/04/04 10:13:44;;;;;;;;;;;;;;;16.68;54.16;100923.91;4986492;28;1461;-56
2021/04/04 10:16:19;;;;;;;;;;;;;;;16.73;55.61;100904.88;4982325;28;1423;-56
2021/04/04 10:19:17;;;;;;;;;;;;;;;16.74;55.26;100893.22;4986169;28;1989;-56
2021/04/04 10:21:56;;;;;;;;;;;;;;;16.75;56.05;100887.78;4963676;28;1549;-56
2021/04/04 10:24:26;;;;;;;;;;;;;;;16.79;55.40;100891.03;4984336;28;1411;-56
2021/04/04 10:27:10;;;;;;;;;;;;;;;16.81;55.68;100891.78;4984389;28;1522;-56
2021/04/04 10:29:35;;;;;;;;;;;;;;;16.83;56.35;100900.53;4987339;28;1459;-56
2021/04/04 10:32:00;;;;;;;;;;;;;;;16.74;54.37;100894.06;4992374;28;1612;-55
2021/04/04 10:34:40;;;;;;;;;;;;;;;16.76;54.94;100892.13;4987569;28;1402;-56
2021/04/04 10:37:05;;;;;;;;;;;;;;;16.80;56.04;100895.44;4997941;28;1508;-56
2021/04/04 10:39:30;;;;;;;;;;;;;;;16.82;56.11;100882.84;4993940;28;1940;-56
2021/04/04 10:41:55;;;;;;;;;;;;;;;16.86;55.75;100900.31;4987372;28;1403;-56
2021/04/04 10:44:24;;;;;;;;;;;;;;;16.88;57.03;100899.22;4984817;28;1411;-56
2021/04/04 10:46:50;;;;;;;;;;;;;;;16.88;55.53;100896.56;4987073;28;1618;-56
2021/04/04 10:49:15;;;;;;;;;;;;;;;16.83;56.05;100906.75;4985945;28;1558;-56
2021/04/04 10:51:41;;;;;;;;;;;;;;;16.81;56.49;100902.44;4989124;28;817;-56
2021/04/04 10:54:07;;;;;;;;;;;;;;;16.77;56.47;100892.97;4993687;28;1436;-56
2021/04/04 10:56:35;;;;;;;;;;;;;;;16.81;57.41;100894.44;4989008;28;1411;-56
2021/04/04 10:59:01;;;;;;;;;;;;;;;16.83;57.16;100890.72;4987064;28;1953;-56
2021/04/04 11:01:29;;;;;;;;;;;;;;;16.82;57.35;100891.69;4989138;28;1546;-56
2021/04/04 11:03:55;;;;;;;;;;;;;;;16.81;57.30;100890.00;4989190;28;1744;-56
2021/04/04 11:06:20;;;;;;;;;;;;;;;16.79;56.79;100893.72;4987789;28;933;-55
2021/04/04 11:08:47;;;;;;;;;;;;;;;16.82;57.21;100904.19;4995015;28;1759;-56
2021/04/04 11:11:15;;;;;;;;;;;;;;;16.80;57.51;100900.75;4986072;28;1246;-56
2021/04/04 11:13:43;;;;;;;;;;;;;;;16.76;57.17;100891.28;4989609;28;1574;-56
2021/04/04 11:16:10;;;;;;;;;;;;;;;16.77;57.65;100895.66;4987436;28;1606;-56
2021/04/04 11:18:41;;;;;;;;;;;;;;;16.75;57.66;100884.22;4988263;28;1376;-55
2021/04/04 11:21:09;;;;;;;;;;;;;;;16.72;57.00;100888.00;4987816;28;1910;-55
2021/04/04 11:23:36;;;;;;;;;;;;;;;16.77;58.69;100892.97;4994492;28;1498;-56
2021/04/04 11:26:20;;;;;;;;;;;;;;;16.79;57.91;100888.38;4986381;28;1433;-55
2021/04/04 11:28:45;;;;;;;;;;;;;;;16.82;58.02;100893.50;4984414;28;1360;-55
2021/04/04 11:31:23;;;;;;;;;;;;;;;16.83;58.18;100896.06;4990641;28;1368;-55
2021/04/04 11:33:49;;;;;;;;;;;;;;;16.81;58.25;100887.34;4987060;28;1320;-56
2021/04/04 11:36:14;;;;;;;;;;;;;;;16.80;58.69;100895.44;4986440;28;1356;-56
2021/04/04 11:38:40;;;;;;;;;;;;;;;16.81;58.93;100897.09;4989629;28;1421;-55
2021/04/04 11:41:13;;;;;;;;;;;;;;;16.81;58.32;100891.78;4989361;28;1890;-55
2021/04/04 11:43:39;;;;;;;;;;;;;;;16.80;58.26;100890.94;4984425;28;1353;-55
2021/04/04 11:46:04;;;;;;;;;;;;;;;16.81;58.77;100891.78;4991421;28;1424;-55
2021/04/04 11:48:31;;;;;;;;;;;;;;;16.83;59.22;100897.88;4992116;28;1407;-57
2021/04/04 11:51:11;;;;;;;;;;;;;;;16.79;58.59;100891.03;4992742;28;1357;-55
2021/04/04 11:53:40;;;;;;;;;;;;;;;16.81;59.35;100906.03;4995634;28;1467;-55
2021/04/04 11:56:05;;;;;;;;;;;;;;;16.80;57.96;100890.09;4994594;28;1525;-56
2021/04/04 11:58:30;;;;;;;;;;;;;;;16.79;59.31;100907.06;4987588;28;1368;-55
2021/04/04 12:00:56;;;;;;;;;;;;;;;16.81;58.10;100894.44;4984821;28;1943;-55
2021/04/04 12:03:26;;;;;;;;;;;;;;;16.83;58.92;100900.53;4994801;28;1736;-55
2021/04/04 12:05:51;;;;;;;;;;;;;;;16.82;58.10;100901.53;4993444;28;1309;-55
2021/04/04 12:08:26;;;;;;;;;;;;;;;16.82;58.69;100889.03;4989784;28;1224;-56
2021/04/04 12:10:51;;;;;;;;;;;;;;;16.81;59.07;100883.75;4991536;28;1362;-56
2021/04/04 12:13:16;;;;;;;;;;;;;;;16.82;59.05;100905.03;4991058;28;1399;-56
2021/04/04 12:15:42;;;;;;;;;;;;;;;16.84;58.26;100903.09;4993283;28;1257;-56
2021/04/04 12:18:09;;;;;;;;;;;;;;;16.82;58.77;100885.50;4990971;28;1724;-56
2021/04/04 12:20:34;;;;;;;;;;;;;;;16.83;58.61;100889.84;4993401;28;1977;-58
2021/04/04 12:23:00;;;;;;;;;;;;;;;16.84;59.74;100876.41;4993821;28;1360;-57
2021/04/04 12:25:27;;;;;;;;;;;;;;;16.87;58.56;100869.97;4995523;28;1330;-56
2021/04/04 12:27:56;;;;;;;;;;;;;;;16.86;59.90;100884.28;4989583;28;1677;-56
2021/04/04 12:30:27;;;;;;;;;;;;;;;16.85;59.96;100888.78;4994926;28;1626;-56
2021/04/04 12:33:03;;;;;;;;;;;;;;;16.86;58.79;100889.63;4989943;28;1196;-57
2021/04/04 12:35:28;;;;;;;;;;;;;;;16.89;58.67;100881.38;4988215;28;1435;-58
2021/04/04 12:37:54;;;;;;;;;;;;;;;16.89;58.88;100876.03;4989384;28;1387;-59
2021/04/04 12:40:19;;;;;;;;;;;;;;;16.85;58.90;100867.44;4992574;28;1886;-58
2021/04/04 12:42:45;;;;;;;;;;;;;;;16.90;59.29;100880.41;4990691;28;1471;-59
2021/04/04 12:45:12;;;;;;;;;;;;;;;16.86;59.16;100889.63;4992646;28;1283;-59
2021/04/04 12:47:41;;;;;;;;;;;;;;;16.92;60.05;100874.97;4983611;28;1506;-58
2021/04/04 12:50:11;;;;;;;;;;;;;;;16.90;58.72;100885.75;4980627;28;1369;-56
2021/04/04 12:53:06;;;;;;;;;;;;;;;16.87;59.04;100885.97;4985299;28;1305;-59
2021/04/04 12:55:35;;;;;;;;;;;;;;;16.88;59.98;100877.00;4979253;28;1303;-60
2021/04/04 12:58:03;;;;;;;;;;;;;;;16.87;59.27;100875.31;4979343;28;1527;-59